Terminal Aerodrome Forecast
Issued by NWS Topeka, KS

Home | Current Version | Previous Version | Graphics & Text | Print | Product List | Glossary On
Versions: 1 2 3 4 5 6 7 8 9 10 11 12 13 14 15 16 17
613
FTUS43 KTOP 120525
TAFTOP
TAF
KTOP 120525Z 1206/1306 22003KT P6SM SCT040
     FM120900 32009KT P6SM BKN020
     FM121500 35013G18KT P6SM SCT020 BKN035
     FM130000 01008KT P6SM BKN100=

USA.gov is the U.S. government's official web portal to all federal, state and local government web resources and services.